Accueil
METAR-TAF:

METAR-TAF

Aéroports :

Aérodrome de Londres Biggin Hill

Londres Biggin Hill, Angleterre

latitude: 51-19N, longitude: 000-02E, altitude: 183 m

Observation

Le bulletin a été fait il y a 20 minutes, à 17:50 UTC
Vent 9 kt de ouest avec des rafales jusqu'à 20 kt, variant entre sud-ouest et ouest/nord-ouest
Température 10°C
Humidité 71%
Pression 1028 hPa
Visibilité 10 km ou plus
Quelques nuages à une hauteur de 2400 ft
Nuages fragmentés à une hauteur de 3400 ft

METAR: EGKB 021750Z 26009G20KT 220V290 9999 FEW024 BKN034 10/05 Q1028

Heure: 18:10 (18:10 UTC)

Prévision

Le bulletin a été fait il y a 1 heure et 19 minutes, à 16:51 UTC
Prévision valable du 02 à 18 UTC au 02 à 23 UTC
Vent 12 kt de ouest
Visibilité 10 km ou plus
Nuages épars à une hauteur de 3000 ft

TAF: EGKB 021651Z 0218/0223 26012KT 9999 SCT030

Observations et prévisions météorologiques de plus de 4000 aéroports (messages METAR et TAF).

Les stations disponibles sont représentées par des disques jaunes et rouges sur la carte.

Passer la souris dessus pour voir le nom de la station.

Cliquer dessus pour voir les observations et prévisions météorologiques.

Pour changer de carte: cliquez sur les boutons verts avec une croix noire pour zoomer, sur le bouton vert avec un tiret pour effectuer un zoom arrière, ou sur les flèches vertes pour les cartes adjacentes.


METAR-TAF: